Terminal Aerodrome Forecast
Issued by NWS

Home | Current Version | Previous Version | Text Only | Print | Product List | Glossary On
Versions: 1 2 3 4 5 6 7 8 9 10 11 12 13 14 15 16 17 18 19 20 21 22 23 24 25 26 27 28 29 30 31 32 33 34 35 36 37 38 39 40 41 42 43 44 45 46
000
FTUS41 KCTP 271731
TAFJST
TAF
KJST 271731Z 2718/2818 24007KT P6SM BKN025
     FM271900 24009G15KT P6SM VCTS SCT027 BKN050CB
     FM280000 31008KT P6SM SCT060
     FM280800 33005KT P6SM SKC
     FM281300 31009KT P6SM SKC=

USA.gov is the U.S. government's official web portal to all federal, state and local government web resources and services.